Terminal Aerodrome Forecast
Issued by NWS Bismarck, ND

Home | Current Version | Previous Version | Text Only | Print | Product List | Glossary Off
Versions: 1 2 3 4 5 6 7 8 9 10 11 12 13 14 15 16 17 18 19 20 21 22 23

000
FTUS43 KBIS 281100 RRA
TAFISN
TAF
KISN 281145Z 2812/2912 31012KT P6SM VCSH SCT015 OVC035
     FM281800 31012KT P6SM BKN015 OVC025
     FM282200 30007KT P6SM BKN025
     FM290300 VRB03KT P6SM SCT025 BKN035=

USA.gov is the U.S. government's official web portal to all federal, state and local government web resources and services.